sensor_id;sensor_type;location;lat;lon;timestamp;pressure;altitude;pressure_sealevel;temperature;humidity
73748;BME280;62056;52.130;5.428;2022-10-31T00:01:00;102297.81;;;13.06;73.48
73748;BME280;62056;52.130;5.428;2022-10-31T00:03:27;102296.78;;;13.07;74.15
73748;BME280;62056;52.130;5.428;2022-10-31T00:05:53;102293.31;;;13.06;74.10
73748;BME280;62056;52.130;5.428;2022-10-31T00:08:20;102291.94;;;13.04;72.87
73748;BME280;62056;52.130;5.428;2022-10-31T00:10:46;102296.75;;;13.02;73.65
73748;BME280;62056;52.130;5.428;2022-10-31T00:13:14;102289.81;;;13.01;73.22
73748;BME280;62056;52.130;5.428;2022-10-31T00:15:41;102293.28;;;13.01;74.64
73748;BME280;62056;52.130;5.428;2022-10-31T00:18:08;102295.69;;;13.03;74.65
73748;BME280;62056;52.130;5.428;2022-10-31T00:20:35;102300.25;;;13.02;73.85
73748;BME280;62056;52.130;5.428;2022-10-31T00:23:03;102299.97;;;13.04;74.48
73748;BME280;62056;52.130;5.428;2022-10-31T00:25:34;102310.09;;;13.02;74.10
73748;BME280;62056;52.130;5.428;2022-10-31T00:28:01;102300.50;;;13.01;74.14
73748;BME280;62056;52.130;5.428;2022-10-31T00:30:31;102302.66;;;12.99;73.74
73748;BME280;62056;52.130;5.428;2022-10-31T00:32:57;102303.44;;;12.94;73.92
73748;BME280;62056;52.130;5.428;2022-10-31T00:35:25;102306.91;;;12.94;73.98
73748;BME280;62056;52.130;5.428;2022-10-31T00:37:52;102311.47;;;12.94;73.66
73748;BME280;62056;52.130;5.428;2022-10-31T00:40:18;102302.63;;;12.93;73.84
73748;BME280;62056;52.130;5.428;2022-10-31T00:42:45;102309.03;;;12.92;73.89
73748;BME280;62056;52.130;5.428;2022-10-31T00:45:11;102306.91;;;12.89;73.81
73748;BME280;62056;52.130;5.428;2022-10-31T00:47:38;102306.91;;;12.89;74.60
73748;BME280;62056;52.130;5.428;2022-10-31T00:50:05;102310.66;;;12.88;73.92
73748;BME280;62056;52.130;5.428;2022-10-31T00:52:32;102310.09;;;12.86;73.98
73748;BME280;62056;52.130;5.428;2022-10-31T00:54:59;102314.66;;;12.86;74.53
73748;BME280;62056;52.130;5.428;2022-10-31T00:57:25;102318.38;;;12.85;74.11
73748;BME280;62056;52.130;5.428;2022-10-31T00:59:52;102321.03;;;12.85;74.81
73748;BME280;62056;52.130;5.428;2022-10-31T01:02:19;102315.69;;;12.85;75.29
73748;BME280;62056;52.130;5.428;2022-10-31T01:04:46;102314.38;;;12.82;75.02
73748;BME280;62056;52.130;5.428;2022-10-31T01:07:12;102313.56;;;12.82;75.50
73748;BME280;62056;52.130;5.428;2022-10-31T01:09:40;102311.69;;;12.82;74.89
73748;BME280;62056;52.130;5.428;2022-10-31T01:12:07;102311.16;;;12.80;75.14
73748;BME280;62056;52.130;5.428;2022-10-31T01:14:33;102309.84;;;12.78;75.30
73748;BME280;62056;52.130;5.428;2022-10-31T01:17:00;102306.09;;;12.73;75.23
73748;BME280;62056;52.130;5.428;2022-10-31T01:19:27;102308.72;;;12.68;75.07
73748;BME280;62056;52.130;5.428;2022-10-31T01:21:54;102303.16;;;12.65;75.23
73748;BME280;62056;52.130;5.428;2022-10-31T01:24:21;102301.78;;;12.62;75.24
73748;BME280;62056;52.130;5.428;2022-10-31T01:26:47;102300.72;;;12.58;75.54
73748;BME280;62056;52.130;5.428;2022-10-31T01:29:14;102293.50;;;12.53;75.42
73748;BME280;62056;52.130;5.428;2022-10-31T01:31:41;102282.81;;;12.48;75.38
73748;BME280;62056;52.130;5.428;2022-10-31T01:34:12;102283.34;;;12.45;76.08
73748;BME280;62056;52.130;5.428;2022-10-31T01:36:40;102287.09;;;12.44;75.37
73748;BME280;62056;52.130;5.428;2022-10-31T01:39:09;102288.13;;;12.43;76.16
73748;BME280;62056;52.130;5.428;2022-10-31T01:41:39;102283.88;;;12.42;76.55
73748;BME280;62056;52.130;5.428;2022-10-31T01:49:16;102284.91;;;12.31;76.00
73748;BME280;62056;52.130;5.428;2022-10-31T01:51:49;102283.56;;;12.28;76.09
73748;BME280;62056;52.130;5.428;2022-10-31T01:54:21;102278.47;;;12.27;75.84
73748;BME280;62056;52.130;5.428;2022-10-31T01:56:52;102281.44;;;12.25;76.41
73748;BME280;62056;52.130;5.428;2022-10-31T01:59:21;102276.59;;;12.22;75.86
73748;BME280;62056;52.130;5.428;2022-10-31T02:01:51;102269.94;;;12.20;75.53
73748;BME280;62056;52.130;5.428;2022-10-31T02:04:19;102280.88;;;12.18;75.18
73748;BME280;62056;52.130;5.428;2022-10-31T02:06:54;102270.72;;;12.15;76.30
73748;BME280;62056;52.130;5.428;2022-10-31T02:09:23;102281.09;;;12.11;75.83
73748;BME280;62056;52.130;5.428;2022-10-31T02:11:52;102276.56;;;12.07;75.79
73748;BME280;62056;52.130;5.428;2022-10-31T02:14:22;102279.19;;;12.02;76.57
73748;BME280;62056;52.130;5.428;2022-10-31T02:16:49;102277.84;;;11.99;75.62
73748;BME280;62056;52.130;5.428;2022-10-31T02:19:27;102275.44;;;11.92;76.31
73748;BME280;62056;52.130;5.428;2022-10-31T02:22:04;102274.91;;;11.90;76.13
73748;BME280;62056;52.130;5.428;2022-10-31T02:24:43;102282.81;;;11.85;76.04
73748;BME280;62056;52.130;5.428;2022-10-31T02:27:19;102279.09;;;11.81;75.35
73748;BME280;62056;52.130;5.428;2022-10-31T02:30:10;102288.66;;;11.77;76.42
73748;BME280;62056;52.130;5.428;2022-10-31T02:36:04;102283.00;;;11.68;77.62
73748;BME280;62056;52.130;5.428;2022-10-31T02:38:53;102283.00;;;11.63;77.04
73748;BME280;62056;52.130;5.428;2022-10-31T02:44:05;102281.09;;;11.59;76.80
73748;BME280;62056;52.130;5.428;2022-10-31T02:49:05;102288.25;;;11.53;76.71
73748;BME280;62056;52.130;5.428;2022-10-31T02:51:34;102294.34;;;11.48;76.09
73748;BME280;62056;52.130;5.428;2022-10-31T02:54:00;102287.69;;;11.46;76.17
73748;BME280;62056;52.130;5.428;2022-10-31T02:56:27;102289.25;;;11.42;75.89
73748;BME280;62056;52.130;5.428;2022-10-31T02:59:02;102285.22;;;11.39;76.39
73748;BME280;62056;52.130;5.428;2022-10-31T03:04:16;102292.41;;;11.33;77.13
73748;BME280;62056;52.130;5.428;2022-10-31T03:06:56;102277.69;;;11.26;76.65
73748;BME280;62056;52.130;5.428;2022-10-31T03:09:27;102288.81;;;11.23;76.46
73748;BME280;62056;52.130;5.428;2022-10-31T03:15:07;102295.16;;;11.17;78.31
73748;BME280;62056;52.130;5.428;2022-10-31T03:17:49;102291.13;;;11.09;77.90
73748;BME280;62056;52.130;5.428;2022-10-31T03:20:22;102287.13;;;11.06;77.13
73748;BME280;62056;52.130;5.428;2022-10-31T03:22:50;102286.03;;;11.02;77.16
73748;BME280;62056;52.130;5.428;2022-10-31T03:25:18;102293.72;;;10.99;77.75
73748;BME280;62056;52.130;5.428;2022-10-31T03:27:46;102297.13;;;10.94;77.31
73748;BME280;62056;52.130;5.428;2022-10-31T03:30:13;102296.59;;;10.92;77.22
73748;BME280;62056;52.130;5.428;2022-10-31T03:32:41;102300.28;;;10.91;76.43
73748;BME280;62056;52.130;5.428;2022-10-31T03:35:12;102294.16;;;10.90;76.49
73748;BME280;62056;52.130;5.428;2022-10-31T03:37:41;102296.03;;;10.90;76.74
73748;BME280;62056;52.130;5.428;2022-10-31T03:40:10;102293.63;;;10.88;77.06
73748;BME280;62056;52.130;5.428;2022-10-31T03:42:41;102293.56;;;10.83;76.74
73748;BME280;62056;52.130;5.428;2022-10-31T03:45:17;102295.69;;;10.81;77.13
73748;BME280;62056;52.130;5.428;2022-10-31T03:47:47;102290.84;;;10.78;76.71
73748;BME280;62056;52.130;5.428;2022-10-31T03:50:14;102299.91;;;10.77;76.46
73748;BME280;62056;52.130;5.428;2022-10-31T03:52:47;102299.34;;;10.75;77.34
73748;BME280;62056;52.130;5.428;2022-10-31T03:55:18;102298.25;;;10.71;76.93
73748;BME280;62056;52.130;5.428;2022-10-31T04:00:19;102289.16;;;10.67;76.84
73748;BME280;62056;52.130;5.428;2022-10-31T04:02:55;102290.44;;;10.64;77.60
73748;BME280;62056;52.130;5.428;2022-10-31T04:05:25;102295.78;;;10.64;76.40
73748;BME280;62056;52.130;5.428;2022-10-31T04:07:54;102294.41;;;10.62;76.40
73748;BME280;62056;52.130;5.428;2022-10-31T04:10:23;102291.22;;;10.60;76.50
73748;BME280;62056;52.130;5.428;2022-10-31T04:13:04;102296.53;;;10.60;77.83
73748;BME280;62056;52.130;5.428;2022-10-31T04:15:33;102300.97;;;10.54;76.98
73748;BME280;62056;52.130;5.428;2022-10-31T04:18:09;102308.41;;;10.52;76.97
73748;BME280;62056;52.130;5.428;2022-10-31T04:20:43;102310.78;;;10.48;77.56
73748;BME280;62056;52.130;5.428;2022-10-31T04:23:24;102305.41;;;10.43;78.15
73748;BME280;62056;52.130;5.428;2022-10-31T04:25:56;102301.94;;;10.43;76.83
73748;BME280;62056;52.130;5.428;2022-10-31T04:28:23;102301.38;;;10.41;77.26
73748;BME280;62056;52.130;5.428;2022-10-31T04:31:16;102300.03;;;10.38;77.63
73748;BME280;62056;52.130;5.428;2022-10-31T04:33:43;102299.72;;;10.35;77.33
73748;BME280;62056;52.130;5.428;2022-10-31T04:36:11;102302.63;;;10.33;77.60
73748;BME280;62056;52.130;5.428;2022-10-31T04:38:39;102298.13;;;10.33;77.41
73748;BME280;62056;52.130;5.428;2022-10-31T04:41:06;102293.03;;;10.32;76.72
73748;BME280;62056;52.130;5.428;2022-10-31T04:43:34;102295.16;;;10.30;77.25
73748;BME280;62056;52.130;5.428;2022-10-31T04:46:07;102288.69;;;10.26;77.76
73748;BME280;62056;52.130;5.428;2022-10-31T04:48:40;102282.03;;;10.23;77.52
73748;BME280;62056;52.130;5.428;2022-10-31T04:51:07;102290.00;;;10.23;77.21
73748;BME280;62056;52.130;5.428;2022-10-31T04:53:33;102287.03;;;10.20;77.45
73748;BME280;62056;52.130;5.428;2022-10-31T04:56:00;102292.56;;;10.18;77.40
73748;BME280;62056;52.130;5.428;2022-10-31T04:58:29;102290.97;;;10.17;76.88
73748;BME280;62056;52.130;5.428;2022-10-31T05:00:55;102289.06;;;10.12;77.50
73748;BME280;62056;52.130;5.428;2022-10-31T05:03:22;102285.31;;;10.08;78.26
73748;BME280;62056;52.130;5.428;2022-10-31T05:05:49;102284.19;;;10.04;77.77
73748;BME280;62056;52.130;5.428;2022-10-31T05:08:16;102280.16;;;10.02;78.44
73748;BME280;62056;52.130;5.428;2022-10-31T05:10:42;102280.09;;;9.97;78.36
73748;BME280;62056;52.130;5.428;2022-10-31T05:13:10;102273.16;;;9.96;78.18
73748;BME280;62056;52.130;5.428;2022-10-31T05:15:37;102277.69;;;9.95;77.39
73748;BME280;62056;52.130;5.428;2022-10-31T05:18:03;102283.22;;;9.93;77.37
73748;BME280;62056;52.130;5.428;2022-10-31T05:20:30;102285.88;;;9.93;77.97
73748;BME280;62056;52.130;5.428;2022-10-31T05:22:59;102281.31;;;9.89;77.64
73748;BME280;62056;52.130;5.428;2022-10-31T05:25:28;102277.53;;;9.85;77.33
73748;BME280;62056;52.130;5.428;2022-10-31T05:27:55;102275.16;;;9.83;77.88
73748;BME280;62056;52.130;5.428;2022-10-31T05:30:28;102281.44;;;9.77;78.58
73748;BME280;62056;52.130;5.428;2022-10-31T05:32:55;102280.34;;;9.73;78.76
73748;BME280;62056;52.130;5.428;2022-10-31T05:35:26;102273.41;;;9.72;78.94
73748;BME280;62056;52.130;5.428;2022-10-31T05:37:59;102275.25;;;9.71;78.69
73748;BME280;62056;52.130;5.428;2022-10-31T05:40:31;102278.38;;;9.68;78.94
73748;BME280;62056;52.130;5.428;2022-10-31T05:43:03;102271.94;;;9.64;79.14
73748;BME280;62056;52.130;5.428;2022-10-31T05:45:29;102271.16;;;9.64;79.47
73748;BME280;62056;52.130;5.428;2022-10-31T05:47:58;102266.91;;;9.63;79.30
73748;BME280;62056;52.130;5.428;2022-10-31T05:50:31;102269.00;;;9.61;79.70
73748;BME280;62056;52.130;5.428;2022-10-31T05:53:04;102268.69;;;9.57;79.96
73748;BME280;62056;52.130;5.428;2022-10-31T05:55:35;102260.38;;;9.53;79.61
73748;BME280;62056;52.130;5.428;2022-10-31T05:58:24;102267.78;;;9.51;81.23
73748;BME280;62056;52.130;5.428;2022-10-31T06:00:51;102263.53;;;9.50;80.60
73748;BME280;62056;52.130;5.428;2022-10-31T06:03:26;102254.78;;;9.50;80.81
73748;BME280;62056;52.130;5.428;2022-10-31T06:05:58;102261.69;;;9.51;79.58
73748;BME280;62056;52.130;5.428;2022-10-31T06:08:25;102262.00;;;9.55;78.70
73748;BME280;62056;52.130;5.428;2022-10-31T06:10:52;102263.13;;;9.59;79.22
73748;BME280;62056;52.130;5.428;2022-10-31T06:13:22;102254.91;;;9.60;80.16
73748;BME280;62056;52.130;5.428;2022-10-31T06:15:50;102260.78;;;9.62;79.52
73748;BME280;62056;52.130;5.428;2022-10-31T06:18:26;102258.94;;;9.63;80.68
73748;BME280;62056;52.130;5.428;2022-10-31T06:20:58;102259.97;;;9.62;80.02
73748;BME280;62056;52.130;5.428;2022-10-31T06:23:30;102255.47;;;9.62;79.69
73748;BME280;62056;52.130;5.428;2022-10-31T06:26:00;102255.47;;;9.62;78.75
73748;BME280;62056;52.130;5.428;2022-10-31T06:28:38;102262.38;;;9.63;78.80
73748;BME280;62056;52.130;5.428;2022-10-31T06:31:11;102260.53;;;9.64;79.47
73748;BME280;62056;52.130;5.428;2022-10-31T06:33:43;102262.16;;;9.65;79.79
73748;BME280;62056;52.130;5.428;2022-10-31T06:36:18;102260.53;;;9.64;79.94
73748;BME280;62056;52.130;5.428;2022-10-31T06:38:44;102262.06;;;9.60;80.34
73748;BME280;62056;52.130;5.428;2022-10-31T06:41:11;102256.19;;;9.58;80.49
73748;BME280;62056;52.130;5.428;2022-10-31T06:47:26;102267.06;;;9.56;81.46
73748;BME280;62056;52.130;5.428;2022-10-31T06:50:00;102267.06;;;9.56;81.31
73748;BME280;62056;52.130;5.428;2022-10-31T06:52:27;102263.94;;;9.59;80.27
73748;BME280;62056;52.130;5.428;2022-10-31T06:54:53;102271.66;;;9.61;80.59
73748;BME280;62056;52.130;5.428;2022-10-31T07:00:18;102275.44;;;9.65;81.48
73748;BME280;62056;52.130;5.428;2022-10-31T07:03:00;102276.47;;;9.64;81.50
73748;BME280;62056;52.130;5.428;2022-10-31T07:05:29;102277.53;;;9.63;81.16
73748;BME280;62056;52.130;5.428;2022-10-31T07:08:05;102277.53;;;9.63;81.95
73748;BME280;62056;52.130;5.428;2022-10-31T07:10:38;102280.97;;;9.63;81.79
73748;BME280;62056;52.130;5.428;2022-10-31T07:13:12;102279.91;;;9.64;81.69
73748;BME280;62056;52.130;5.428;2022-10-31T07:15:41;102281.78;;;9.64;82.03
73748;BME280;62056;52.130;5.428;2022-10-31T07:18:18;102274.59;;;9.64;82.30
73748;BME280;62056;52.130;5.428;2022-10-31T07:20:56;102279.44;;;9.67;81.97
73748;BME280;62056;52.130;5.428;2022-10-31T07:23:33;102271.25;;;9.69;82.01
73748;BME280;62056;52.130;5.428;2022-10-31T07:26:09;102268.09;;;9.72;81.76
73748;BME280;62056;52.130;5.428;2022-10-31T07:28:41;102269.19;;;9.76;81.58
73748;BME280;62056;52.130;5.428;2022-10-31T07:31:22;102275.63;;;9.80;82.81
73748;BME280;62056;52.130;5.428;2022-10-31T07:33:58;102275.16;;;9.83;82.61
73748;BME280;62056;52.130;5.428;2022-10-31T07:36:24;102285.03;;;9.88;82.79
73748;BME280;62056;52.130;5.428;2022-10-31T07:38:54;102285.66;;;9.95;83.24
73748;BME280;62056;52.130;5.428;2022-10-31T07:41:24;102283.38;;;10.04;83.54
73748;BME280;62056;52.130;5.428;2022-10-31T07:43:54;102286.41;;;10.12;83.85
73748;BME280;62056;52.130;5.428;2022-10-31T07:46:40;102290.47;;;10.20;84.61
73748;BME280;62056;52.130;5.428;2022-10-31T07:49:09;102283.44;;;10.31;85.51
73748;BME280;62056;52.130;5.428;2022-10-31T07:51:50;102286.22;;;10.41;85.79
73748;BME280;62056;52.130;5.428;2022-10-31T07:54:31;102291.66;;;10.51;85.89
73748;BME280;62056;52.130;5.428;2022-10-31T07:57:06;102290.41;;;10.59;86.35
73748;BME280;62056;52.130;5.428;2022-10-31T07:59:52;102286.78;;;10.70;86.66
73748;BME280;62056;52.130;5.428;2022-10-31T08:02:30;102290.38;;;10.81;86.55
73748;BME280;62056;52.130;5.428;2022-10-31T08:05:21;102294.72;;;10.92;86.73
73748;BME280;62056;52.130;5.428;2022-10-31T08:07:54;102293.19;;;11.02;86.70
73748;BME280;62056;52.130;5.428;2022-10-31T08:10:21;102291.94;;;11.09;87.12
73748;BME280;62056;52.130;5.428;2022-10-31T08:13:04;102300.00;;;11.20;86.67
73748;BME280;62056;52.130;5.428;2022-10-31T08:15:32;102300.34;;;11.28;87.11
73748;BME280;62056;52.130;5.428;2022-10-31T08:18:01;102295.59;;;11.36;87.34
73748;BME280;62056;52.130;5.428;2022-10-31T08:20:34;102298.34;;;11.46;87.23
73748;BME280;62056;52.130;5.428;2022-10-31T08:23:03;102294.38;;;11.53;87.05
73748;BME280;62056;52.130;5.428;2022-10-31T08:25:35;102298.72;;;11.65;86.89
73748;BME280;62056;52.130;5.428;2022-10-31T08:28:41;102303.84;;;11.77;87.20
73748;BME280;62056;52.130;5.428;2022-10-31T08:31:08;102296.44;;;11.84;87.16
73748;BME280;62056;52.130;5.428;2022-10-31T08:34:14;102290.91;;;11.95;86.81
73748;BME280;62056;52.130;5.428;2022-10-31T08:36:51;102286.69;;;12.05;87.36
73748;BME280;62056;52.130;5.428;2022-10-31T08:39:38;102286.97;;;12.13;86.90
73748;BME280;62056;52.130;5.428;2022-10-31T08:42:07;102284.31;;;12.19;86.80
73748;BME280;62056;52.130;5.428;2022-10-31T08:44:36;102284.91;;;12.26;86.74
73748;BME280;62056;52.130;5.428;2022-10-31T08:47:06;102286.53;;;12.32;86.66
73748;BME280;62056;52.130;5.428;2022-10-31T08:52:46;102278.53;;;12.47;86.48
73748;BME280;62056;52.130;5.428;2022-10-31T08:56:01;102263.88;;;12.55;86.18
73748;BME280;62056;52.130;5.428;2022-10-31T08:58:32;102264.72;;;12.61;86.06
73748;BME280;62056;52.130;5.428;2022-10-31T09:01:05;102259.38;;;12.66;85.83
73748;BME280;62056;52.130;5.428;2022-10-31T09:03:32;102264.72;;;12.71;86.80
73748;BME280;62056;52.130;5.428;2022-10-31T09:06:02;102258.84;;;12.74;86.74
73748;BME280;62056;52.130;5.428;2022-10-31T09:08:30;102265.78;;;12.80;85.86
73748;BME280;62056;52.130;5.428;2022-10-31T09:10:59;102252.72;;;12.84;86.86
73748;BME280;62056;52.130;5.428;2022-10-31T09:13:26;102252.44;;;12.90;86.48
73748;BME280;62056;52.130;5.428;2022-10-31T09:15:53;102249.50;;;12.97;86.33
73748;BME280;62056;52.130;5.428;2022-10-31T09:18:24;102246.84;;;13.02;86.59
73748;BME280;62056;52.130;5.428;2022-10-31T09:21:12;102242.81;;;13.10;86.97
73748;BME280;62056;52.130;5.428;2022-10-31T09:23:50;102237.72;;;13.19;86.96
73748;BME280;62056;52.130;5.428;2022-10-31T09:26:36;102235.88;;;13.29;85.85
73748;BME280;62056;52.130;5.428;2022-10-31T09:29:23;102224.66;;;13.38;86.15
73748;BME280;62056;52.130;5.428;2022-10-31T09:32:22;102213.91;;;13.48;86.23
73748;BME280;62056;52.130;5.428;2022-10-31T09:34:58;102211.22;;;13.53;86.58
73748;BME280;62056;52.130;5.428;2022-10-31T09:37:28;102213.34;;;13.61;86.89
73748;BME280;62056;52.130;5.428;2022-10-31T09:43:03;102212.22;;;13.77;86.06
73748;BME280;62056;52.130;5.428;2022-10-31T09:45:41;102223.41;;;13.85;86.49
73748;BME280;62056;52.130;5.428;2022-10-31T09:48:32;102216.66;;;13.97;86.78
73748;BME280;62056;52.130;5.428;2022-10-31T09:51:07;102222.25;;;14.06;86.85
73748;BME280;62056;52.130;5.428;2022-10-31T09:54:11;102215.47;;;14.19;85.76
73748;BME280;62056;52.130;5.428;2022-10-31T09:56:49;102208.19;;;14.25;86.47
73748;BME280;62056;52.130;5.428;2022-10-31T09:59:40;102218.31;;;14.38;85.26
73748;BME280;62056;52.130;5.428;2022-10-31T10:06:07;102205.59;;;14.59;85.42
73748;BME280;62056;52.130;5.428;2022-10-31T10:09:11;102206.31;;;14.70;86.09
73748;BME280;62056;52.130;5.428;2022-10-31T10:12:13;102199.56;;;14.77;85.47
73748;BME280;62056;52.130;5.428;2022-10-31T10:14:50;102192.50;;;14.87;86.07
73748;BME280;62056;52.130;5.428;2022-10-31T10:17:41;102190.31;;;14.94;85.76
73748;BME280;62056;52.130;5.428;2022-10-31T10:20:44;102182.19;;;15.04;84.09
73748;BME280;62056;52.130;5.428;2022-10-31T10:26:02;102192.22;;;15.17;84.75
73748;BME280;62056;52.130;5.428;2022-10-31T10:29:40;102178.69;;;15.28;83.52
73748;BME280;62056;52.130;5.428;2022-10-31T10:32:42;102169.53;;;15.34;84.45
73748;BME280;62056;52.130;5.428;2022-10-31T10:37:50;102168.91;;;15.42;84.93
73748;BME280;62056;52.130;5.428;2022-10-31T10:40:28;102166.41;;;15.46;84.96
73748;BME280;62056;52.130;5.428;2022-10-31T10:43:52;102165.59;;;15.50;82.64
73748;BME280;62056;52.130;5.428;2022-10-31T10:46:47;102149.13;;;15.57;82.80
73748;BME280;62056;52.130;5.428;2022-10-31T10:49:51;102149.88;;;15.63;84.21
73748;BME280;62056;52.130;5.428;2022-10-31T10:58:11;102118.03;;;15.80;83.54
73748;BME280;62056;52.130;5.428;2022-10-31T11:00:43;102123.00;;;15.87;83.51
73748;BME280;62056;52.130;5.428;2022-10-31T11:03:18;102117.28;;;15.93;83.01
73748;BME280;62056;52.130;5.428;2022-10-31T11:06:01;102104.59;;;15.99;83.57
73748;BME280;62056;52.130;5.428;2022-10-31T11:08:40;102083.84;;;16.05;82.65
73748;BME280;62056;52.130;5.428;2022-10-31T11:11:23;102083.47;;;16.11;81.66
73748;BME280;62056;52.130;5.428;2022-10-31T11:14:04;102057.16;;;16.13;80.86
73748;BME280;62056;52.130;5.428;2022-10-31T11:22:48;102070.91;;;16.26;83.16
73748;BME280;62056;52.130;5.428;2022-10-31T11:25:25;102070.00;;;16.30;81.55
73748;BME280;62056;52.130;5.428;2022-10-31T11:28:12;102070.72;;;16.36;80.66
73748;BME280;62056;52.130;5.428;2022-10-31T11:30:45;102079.28;;;16.38;81.39
73748;BME280;62056;52.130;5.428;2022-10-31T11:33:44;102074.09;;;16.42;80.49
73748;BME280;62056;52.130;5.428;2022-10-31T11:36:24;102059.00;;;16.46;81.51
73748;BME280;62056;52.130;5.428;2022-10-31T11:38:54;102056.00;;;16.47;82.11
73748;BME280;62056;52.130;5.428;2022-10-31T11:41:33;102047.38;;;16.50;81.39
73748;BME280;62056;52.130;5.428;2022-10-31T11:44:03;102048.06;;;16.56;81.94
73748;BME280;62056;52.130;5.428;2022-10-31T11:46:44;102043.69;;;16.60;80.90
73748;BME280;62056;52.130;5.428;2022-10-31T11:49:17;102046.88;;;16.62;80.90
73748;BME280;62056;52.130;5.428;2022-10-31T11:51:51;102045.19;;;16.66;80.21
73748;BME280;62056;52.130;5.428;2022-10-31T11:54:23;102038.94;;;16.71;81.15
73748;BME280;62056;52.130;5.428;2022-10-31T11:56:51;102016.84;;;16.74;79.32
73748;BME280;62056;52.130;5.428;2022-10-31T11:59:27;102014.16;;;16.74;79.97
73748;BME280;62056;52.130;5.428;2022-10-31T12:02:00;102000.44;;;16.75;80.64
73748;BME280;62056;52.130;5.428;2022-10-31T12:04:50;101991.56;;;16.75;77.54
73748;BME280;62056;52.130;5.428;2022-10-31T12:07:25;101981.31;;;16.77;80.20
73748;BME280;62056;52.130;5.428;2022-10-31T12:09:53;101987.50;;;16.77;80.06
73748;BME280;62056;52.130;5.428;2022-10-31T12:12:37;101980.25;;;16.78;78.73
73748;BME280;62056;52.130;5.428;2022-10-31T12:21:10;101963.34;;;16.77;78.23
73748;BME280;62056;52.130;5.428;2022-10-31T12:23:56;101967.88;;;16.77;79.64
73748;BME280;62056;52.130;5.428;2022-10-31T12:45:52;101916.56;;;16.92;77.43
73748;BME280;62056;52.130;5.428;2022-10-31T12:48:47;101898.47;;;16.98;76.50
73748;BME280;62056;52.130;5.428;2022-10-31T12:54:26;101888.06;;;17.05;77.71
73748;BME280;62056;52.130;5.428;2022-10-31T12:57:31;101884.47;;;17.10;77.06
73748;BME280;62056;52.130;5.428;2022-10-31T13:00:13;101881.47;;;17.11;75.94
73748;BME280;62056;52.130;5.428;2022-10-31T13:02:52;101877.38;;;17.14;78.01
73748;BME280;62056;52.130;5.428;2022-10-31T13:08:04;101877.28;;;17.19;77.14
73748;BME280;62056;52.130;5.428;2022-10-31T13:13:32;101861.00;;;17.24;77.32
73748;BME280;62056;52.130;5.428;2022-10-31T13:16:14;101859.59;;;17.27;77.42
73748;BME280;62056;52.130;5.428;2022-10-31T13:18:52;101849.03;;;17.30;76.70
73748;BME280;62056;52.130;5.428;2022-10-31T13:21:58;101829.91;;;17.32;77.50
73748;BME280;62056;52.130;5.428;2022-10-31T13:24:33;101818.88;;;17.33;77.08
73748;BME280;62056;52.130;5.428;2022-10-31T13:27:12;101815.53;;;17.36;76.51
73748;BME280;62056;52.130;5.428;2022-10-31T13:29:58;101809.38;;;17.36;77.29
73748;BME280;62056;52.130;5.428;2022-10-31T13:35:23;101808.25;;;17.37;76.72
73748;BME280;62056;52.130;5.428;2022-10-31T13:40:47;101793.88;;;17.42;76.88
73748;BME280;62056;52.130;5.428;2022-10-31T13:49:00;101778.59;;;17.51;77.25
73748;BME280;62056;52.130;5.428;2022-10-31T13:51:32;101769.13;;;17.53;76.77
73748;BME280;62056;52.130;5.428;2022-10-31T13:54:23;101764.72;;;17.57;76.20
73748;BME280;62056;52.130;5.428;2022-10-31T13:56:56;101757.91;;;17.60;76.37
73748;BME280;62056;52.130;5.428;2022-10-31T13:59:35;101758.09;;;17.64;76.17
73748;BME280;62056;52.130;5.428;2022-10-31T14:02:24;101760.16;;;17.67;76.76
73748;BME280;62056;52.130;5.428;2022-10-31T14:04:57;101753.66;;;17.68;75.67
73748;BME280;62056;52.130;5.428;2022-10-31T14:07:41;101744.50;;;17.69;76.46
73748;BME280;62056;52.130;5.428;2022-10-31T14:10:49;101743.09;;;17.71;75.20
73748;BME280;62056;52.130;5.428;2022-10-31T14:13:34;101741.19;;;17.72;75.05
73748;BME280;62056;52.130;5.428;2022-10-31T14:16:26;101733.91;;;17.72;74.97
73748;BME280;62056;52.130;5.428;2022-10-31T14:19:14;101731.22;;;17.72;75.25
73748;BME280;62056;52.130;5.428;2022-10-31T14:21:46;101718.09;;;17.71;75.72
73748;BME280;62056;52.130;5.428;2022-10-31T14:27:33;101717.28;;;17.70;75.11
73748;BME280;62056;52.130;5.428;2022-10-31T14:30:15;101706.38;;;17.67;74.77
73748;BME280;62056;52.130;5.428;2022-10-31T14:39:57;101692.75;;;17.63;74.65
73748;BME280;62056;52.130;5.428;2022-10-31T14:45:55;101682.00;;;17.63;75.20
73748;BME280;62056;52.130;5.428;2022-10-31T14:51:39;101664.25;;;17.62;75.23
73748;BME280;62056;52.130;5.428;2022-10-31T14:54:10;101674.22;;;17.62;75.65
73748;BME280;62056;52.130;5.428;2022-10-31T14:56:50;101666.16;;;17.62;75.46
73748;BME280;62056;52.130;5.428;2022-10-31T14:59:25;101670.28;;;17.59;75.58
73748;BME280;62056;52.130;5.428;2022-10-31T15:01:59;101671.38;;;17.58;75.61
73748;BME280;62056;52.130;5.428;2022-10-31T15:04:30;101668.69;;;17.58;75.96
73748;BME280;62056;52.130;5.428;2022-10-31T15:07:24;101670.28;;;17.59;75.25
73748;BME280;62056;52.130;5.428;2022-10-31T15:10:06;101660.94;;;17.56;75.34
73748;BME280;62056;52.130;5.428;2022-10-31T15:12:36;101665.50;;;17.56;75.94
73748;BME280;62056;52.130;5.428;2022-10-31T15:15:24;101664.41;;;17.57;75.33
73748;BME280;62056;52.130;5.428;2022-10-31T15:18:20;101658.56;;;17.55;75.71
73748;BME280;62056;52.130;5.428;2022-10-31T15:20:59;101658.09;;;17.53;75.62
73748;BME280;62056;52.130;5.428;2022-10-31T15:26:38;101645.72;;;17.52;75.61
73748;BME280;62056;52.130;5.428;2022-10-31T15:29:32;101640.34;;;17.52;75.20
73748;BME280;62056;52.130;5.428;2022-10-31T15:32:29;101633.72;;;17.49;75.81
73748;BME280;62056;52.130;5.428;2022-10-31T15:34:56;101628.97;;;17.46;75.95